Time;durP1;ratioP1;P1;durP2;ratioP2;P2;SDS_P1;SDS_P2;PMS_P1;PMS_P2;Temp;Humidity;BMP_temperature;BMP_pressure;BME280_temperature;BME280_humidity;BME280_pressure;Samples;Min_cycle;Max_cycle;Signal;HPM_P1;HPM_P2
2023/07/10 00:01:57;;;;;;;12.35;9.80;;;21.80;72.20;;;;;;5038418;28;20047;-70
2023/07/10 00:04:23;;;;;;;10.13;9.02;;;21.80;72.10;;;;;;5054843;28;20037;-76
2023/07/10 00:06:48;;;;;;;8.80;7.90;;;21.80;72.00;;;;;;5038575;28;20092;-76
2023/07/10 00:09:14;;;;;;;12.07;9.35;;;21.80;71.90;;;;;;5038463;28;20067;-76
2023/07/10 00:11:42;;;;;;;11.13;9.80;;;21.70;71.80;;;;;;5038605;28;20105;-76
2023/07/10 00:14:34;;;;;;;11.15;9.10;;;21.70;71.80;;;;;;5038653;28;20037;-76
2023/07/10 00:17:00;;;;;;;12.77;9.98;;;21.70;71.50;;;;;;5043655;28;20073;-76
2023/07/10 00:19:26;;;;;;;10.15;8.75;;;21.60;71.80;;;;;;5022140;28;20145;-76
2023/07/10 00:21:52;;;;;;;10.55;8.98;;;21.60;71.90;;;;;;5038412;28;20075;-76
2023/07/10 00:24:18;;;;;;;13.45;10.52;;;21.60;72.00;;;;;;5055167;28;20694;-76
2023/07/10 00:26:43;;;;;;;12.75;10.68;;;21.60;72.20;;;;;;5037579;28;20071;-70
2023/07/10 00:29:22;;;;;;;17.83;11.13;;;21.50;72.40;;;;;;5054513;28;20539;-70
2023/07/10 00:31:47;;;;;;;13.02;11.18;;;21.50;73.00;;;;;;5072641;28;20561;-70
2023/07/10 00:34:15;;;;;;;14.85;11.50;;;21.50;73.20;;;;;;5037875;28;20132;-76
2023/07/10 00:36:41;;;;;;;12.20;10.60;;;21.50;73.50;;;;;;5038349;28;20475;-76
2023/07/10 00:39:24;;;;;;;14.00;11.65;;;21.50;73.80;;;;;;5054311;28;20037;-76
2023/07/10 00:42:04;;;;;;;16.95;12.65;;;21.40;73.90;;;;;;5054667;28;20098;-70
2023/07/10 00:44:38;;;;;;;14.98;12.75;;;21.40;74.10;;;;;;5038011;28;20036;-70
2023/07/10 00:47:10;;;;;;;;;;;21.40;74.40;;;;;;5054920;28;20400;-70
2023/07/10 00:49:49;;;;;;;15.85;13.18;;;21.40;73.70;;;;;;5054220;28;19924;-70
2023/07/10 00:52:20;;;;;;;16.83;12.73;;;21.40;74.60;;;;;;5047424;28;20091;-70
2023/07/10 00:54:52;;;;;;;15.80;12.75;;;21.30;74.80;;;;;;5054103;28;20040;-70
2023/07/10 00:57:33;;;;;;;15.18;12.43;;;21.40;75.00;;;;;;5053902;28;20529;-70
2023/07/10 01:00:00;;;;;;;17.58;12.38;;;21.30;74.90;;;;;;5054191;28;20109;-70
2023/07/10 01:02:26;;;;;;;14.80;12.55;;;21.40;74.90;;;;;;5053935;28;20094;-70
2023/07/10 01:04:59;;;;;;;14.30;11.02;;;21.30;74.90;;;;;;5054177;28;20141;-70
2023/07/10 01:07:29;;;;;;;14.57;10.40;;;21.30;74.80;;;;;;5037170;28;20040;-69
2023/07/10 01:10:03;;;;;;;14.40;10.70;;;21.30;74.60;;;;;;5037318;28;20040;-70
2023/07/10 01:12:30;;;;;;;14.73;11.05;;;21.30;74.50;;;;;;5053909;28;20048;-70
2023/07/10 01:14:56;;;;;;;12.60;9.52;;;21.30;74.40;;;;;;5051283;28;20040;-70
2023/07/10 01:17:22;;;;;;;11.02;9.73;;;21.30;74.30;;;;;;5053783;28;20063;-70
2023/07/10 01:19:49;;;;;;;12.32;10.48;;;21.20;74.10;;;;;;5053934;28;20126;-70
2023/07/10 01:22:15;;;;;;;12.45;10.43;;;21.20;74.10;;;;;;5053755;28;20109;-70
2023/07/10 01:24:42;;;;;;;11.90;10.32;;;21.20;74.10;;;;;;5053687;28;20040;-76
2023/07/10 01:27:12;;;;;;;11.63;10.43;;;21.20;74.00;;;;;;5021391;28;20089;-76
2023/07/10 01:29:43;;;;;;;14.38;12.18;;;21.20;74.00;;;;;;5055950;28;20032;-75
2023/07/10 01:32:12;;;;;;;11.77;9.05;;;21.20;74.10;;;;;;5055283;28;20042;-75
2023/07/10 01:34:52;;;;;;;12.85;9.65;;;21.20;74.00;;;;;;5037285;28;20051;-75
2023/07/10 01:37:18;;;;;;;11.55;9.35;;;21.20;73.80;;;;;;5037477;28;20408;-76
2023/07/10 01:39:52;;;;;;;13.95;10.43;;;21.20;73.90;;;;;;5053430;28;20041;-75
2023/07/10 01:42:19;;;;;;;12.13;10.00;;;21.20;73.90;;;;;;5053676;28;20729;-76
2023/07/10 01:44:47;;;;;;;11.07;10.07;;;21.10;73.90;;;;;;5053645;28;20082;-76
2023/07/10 01:47:14;;;;;;;11.77;9.75;;;21.10;74.00;;;;;;5036757;28;20040;-76
2023/07/10 01:49:54;;;;;;;13.13;10.73;;;21.10;74.00;;;;;;5053585;28;20040;-75
2023/07/10 01:52:21;;;;;;;14.38;11.48;;;21.10;73.80;;;;;;5037099;28;20051;-76
2023/07/10 01:54:47;;;;;;;14.02;11.20;;;21.10;74.00;;;;;;5036737;28;20036;-77
2023/07/10 01:57:15;;;;;;;12.77;10.00;;;21.10;74.00;;;;;;5057741;28;20036;-76
2023/07/10 01:59:40;;;;;;;16.15;11.77;;;21.10;74.00;;;;;;5051242;28;20045;-70
2023/07/10 02:02:07;;;;;;;13.10;11.63;;;21.10;74.00;;;;;;5052497;28;20029;-70
2023/07/10 02:04:33;;;;;;;15.15;11.80;;;21.10;74.10;;;;;;5051492;28;20064;-70
2023/07/10 02:07:00;;;;;;;14.05;11.15;;;21.10;74.20;;;;;;5053177;28;20545;-69
2023/07/10 02:09:28;;;;;;;17.42;11.68;;;21.10;74.10;;;;;;5036653;28;20114;-76
2023/07/10 02:11:54;;;;;;;12.15;10.98;;;21.10;74.10;;;;;;5058774;28;20124;-76
2023/07/10 02:14:20;;;;;;;14.30;11.52;;;21.00;74.10;;;;;;5052825;28;20037;-76
2023/07/10 02:16:47;;;;;;;14.57;12.25;;;21.00;74.20;;;;;;5052678;28;20488;-76
2023/07/10 02:19:13;;;;;;;13.93;11.38;;;21.00;74.30;;;;;;5052743;28;20075;-76
2023/07/10 02:21:39;;;;;;;14.38;12.77;;;21.00;74.30;;;;;;5052970;28;20051;-70
2023/07/10 02:24:06;;;;;;;12.57;10.82;;;21.00;74.40;;;;;;5052895;28;20040;-70
2023/07/10 02:26:32;;;;;;;12.52;11.15;;;21.00;74.40;;;;;;5052975;28;20040;-70
2023/07/10 02:28:58;;;;;;;13.80;12.02;;;21.00;74.40;;;;;;5053095;28;20048;-70
2023/07/10 02:31:25;;;;;;;14.50;12.05;;;21.00;74.50;;;;;;5053005;28;20348;-70
2023/07/10 02:33:51;;;;;;;13.00;10.88;;;21.00;74.40;;;;;;5036319;28;20368;-70
2023/07/10 02:36:18;;;;;;;13.27;11.88;;;21.00;74.40;;;;;;5053135;28;20043;-70
2023/07/10 02:38:43;;;;;;;12.40;10.95;;;21.00;74.40;;;;;;5052923;28;20045;-70
2023/07/10 02:41:09;;;;;;;12.40;10.95;;;21.00;74.40;;;;;;5053004;28;20041;-70
2023/07/10 02:43:35;;;;;;;12.45;11.05;;;21.00;74.30;;;;;;5053253;28;20054;-75
2023/07/10 02:46:01;;;;;;;12.32;10.77;;;21.00;74.40;;;;;;5036362;28;20476;-70
2023/07/10 02:48:26;;;;;;;11.30;9.35;;;21.00;74.40;;;;;;5036211;28;20043;-70
2023/07/10 02:50:52;;;;;;;14.25;11.98;;;20.90;74.40;;;;;;5038275;28;20127;-70
2023/07/10 02:53:18;;;;;;;11.82;9.73;;;20.90;74.40;;;;;;5056457;28;20503;-70
2023/07/10 02:55:44;;;;;;;11.35;9.95;;;20.90;74.40;;;;;;5056436;28;20077;-70
2023/07/10 02:58:10;;;;;;;13.25;11.05;;;20.90;74.40;;;;;;5056645;28;20123;-70
2023/07/10 03:00:36;;;;;;;12.60;9.88;;;20.90;74.40;;;;;;5056542;28;20037;-70
2023/07/10 03:03:02;;;;;;;14.05;10.43;;;20.90;74.50;;;;;;5039932;28;20044;-70
2023/07/10 03:05:28;;;;;;;9.75;8.75;;;20.90;74.50;;;;;;5056547;28;20453;-70
2023/07/10 03:07:54;;;;;;;11.07;9.50;;;20.80;74.40;;;;;;5056245;28;20368;-70
2023/07/10 03:10:20;;;;;;;11.02;7.88;;;20.80;74.40;;;;;;5074315;28;20101;-70
2023/07/10 03:12:46;;;;;;;9.30;7.47;;;20.80;74.30;;;;;;5056119;28;20048;-70
2023/07/10 03:15:12;;;;;;;7.78;6.60;;;20.80;74.20;;;;;;5055655;28;20049;-70
2023/07/10 03:17:39;;;;;;;8.85;6.18;;;20.80;74.00;;;;;;5055791;28;20492;-70
2023/07/10 03:20:05;;;;;;;7.63;5.68;;;20.70;73.80;;;;;;5039401;28;20143;-70
2023/07/10 03:22:31;;;;;;;8.50;4.97;;;20.70;73.60;;;;;;5055908;28;20055;-70
2023/07/10 03:24:57;;;;;;;7.70;4.65;;;20.70;73.50;;;;;;5038865;28;20044;-70
2023/07/10 03:27:24;;;;;;;9.75;5.00;;;20.70;73.40;;;;;;5056116;28;20403;-70
2023/07/10 03:29:50;;;;;;;5.78;3.40;;;20.60;73.30;;;;;;5039357;28;20044;-70
2023/07/10 03:32:16;;;;;;;7.18;4.00;;;20.60;73.30;;;;;;5039441;28;20564;-68
2023/07/10 03:34:42;;;;;;;4.65;3.47;;;20.60;73.20;;;;;;5055527;28;20454;-74
2023/07/10 03:37:08;;;;;;;6.28;3.53;;;20.60;73.10;;;;;;5056006;28;20119;-76
2023/07/10 03:39:35;;;;;;;5.05;2.92;;;20.60;73.10;;;;;;5055891;28;20070;-76
2023/07/10 03:42:01;;;;;;;5.70;3.60;;;20.50;73.00;;;;;;5055860;28;20071;-76
2023/07/10 03:44:27;;;;;;;5.47;3.63;;;20.50;72.90;;;;;;5055742;28;20491;-76
2023/07/10 03:46:53;;;;;;;4.68;3.17;;;20.50;72.80;;;;;;5055373;28;20041;-76
2023/07/10 03:49:18;;;;;;;4.55;3.35;;;20.50;72.70;;;;;;5055946;28;20072;-76
2023/07/10 03:51:44;;;;;;;4.05;2.88;;;20.50;72.50;;;;;;5055537;28;20460;-70
2023/07/10 03:54:10;;;;;;;4.78;2.75;;;20.40;72.40;;;;;;5055382;28;20051;-70
2023/07/10 03:56:36;;;;;;;4.30;2.47;;;20.40;72.40;;;;;;5038771;28;20071;-70
2023/07/10 03:59:02;;;;;;;4.13;2.20;;;20.40;72.40;;;;;;5055214;28;20131;-70
2023/07/10 04:01:28;;;;;;;4.68;2.40;;;20.40;72.30;;;;;;5055217;28;20055;-70
2023/07/10 04:03:53;;;;;;;4.10;1.88;;;20.40;72.20;;;;;;5054454;28;20486;-70
2023/07/10 04:06:19;;;;;;;4.10;2.25;;;20.40;72.10;;;;;;5055031;28;20040;-70
2023/07/10 04:08:46;;;;;;;3.40;1.83;;;20.40;72.00;;;;;;5038281;28;20131;-70
2023/07/10 04:11:19;;;;;;;3.45;1.90;;;20.30;72.00;;;;;;5055216;28;20041;-70
2023/07/10 04:13:46;;;;;;;3.58;1.70;;;20.30;71.80;;;;;;5055036;28;20051;-70
2023/07/10 04:16:28;;;;;;;2.85;1.60;;;20.30;71.80;;;;;;5047018;28;20032;-70
2023/07/10 04:18:54;;;;;;;2.85;1.42;;;20.30;71.60;;;;;;5054528;28;20051;-70
2023/07/10 04:21:26;;;;;;;4.50;1.67;;;20.30;71.60;;;;;;5038144;28;20419;-70
2023/07/10 04:23:53;;;;;;;5.25;2.05;;;20.30;71.40;;;;;;5054879;28;20109;-70
2023/07/10 04:26:28;;;;;;;5.43;1.80;;;20.30;71.40;;;;;;5055076;28;20047;-70
2023/07/10 04:28:58;;;;;;;5.07;1.92;;;20.20;71.30;;;;;;5054793;28;20043;-70
2023/07/10 04:31:25;;;;;;;3.30;1.42;;;20.20;71.30;;;;;;5038709;28;20041;-70
2023/07/10 04:33:52;;;;;;;2.78;1.75;;;20.20;71.30;;;;;;5054597;28;20432;-70
2023/07/10 04:36:19;;;;;;;3.45;1.83;;;20.20;71.20;;;;;;5046830;28;20041;-70
2023/07/10 04:38:45;;;;;;;3.95;2.00;;;20.20;71.60;;;;;;5038078;28;20041;-70
2023/07/10 04:41:13;;;;;;;4.88;1.80;;;20.20;71.20;;;;;;5054838;28;20059;-70
2023/07/10 04:43:38;;;;;;;2.25;1.40;;;20.20;71.10;;;;;;5054369;28;20090;-70
2023/07/10 04:46:07;;;;;;;2.63;1.63;;;20.20;71.20;;;;;;5037812;28;20049;-70
2023/07/10 04:48:33;;;;;;;5.57;2.10;;;20.20;71.20;;;;;;5054403;28;20117;-70
2023/07/10 04:51:03;;;;;;;2.95;1.73;;;20.20;71.30;;;;;;5053962;28;20041;-70
2023/07/10 04:53:32;;;;;;;4.07;2.15;;;20.20;71.50;;;;;;5054390;28;20044;-75
2023/07/10 04:56:04;;;;;;;5.15;1.85;;;20.20;71.60;;;;;;5053846;28;20040;-75
2023/07/10 04:58:43;;;;;;;3.28;2.00;;;20.20;71.70;;;;;;5038141;28;20036;-75
2023/07/10 05:01:09;;;;;;;2.70;1.50;;;20.20;71.80;;;;;;5053769;28;20120;-69
2023/07/10 05:03:35;;;;;;;5.22;1.85;;;20.20;71.80;;;;;;5053933;28;20131;-69
2023/07/10 05:06:00;;;;;;;2.83;1.70;;;20.20;71.80;;;;;;5054126;28;20043;-69
2023/07/10 05:08:27;;;;;;;4.95;1.38;;;20.20;71.90;;;;;;5054079;28;20040;-69
2023/07/10 05:10:54;;;;;;;4.43;1.58;;;20.20;71.90;;;;;;5053992;28;20083;-75
2023/07/10 05:13:22;;;;;;;4.20;1.83;;;20.20;72.00;;;;;;5053211;28;20053;-75
2023/07/10 05:15:48;;;;;;;3.22;2.00;;;20.20;72.00;;;;;;5053883;28;20055;-75
2023/07/10 05:18:15;;;;;;;2.90;1.65;;;20.20;72.10;;;;;;5037034;28;20464;-75
2023/07/10 05:20:44;;;;;;;5.25;2.20;;;20.20;72.20;;;;;;5053344;28;20033;-74
2023/07/10 05:23:10;;;;;;;5.03;1.80;;;20.20;72.20;;;;;;5053565;28;20527;-75
2023/07/10 05:25:36;;;;;;;6.53;2.47;;;20.30;72.40;;;;;;5054214;28;20044;-75
2023/07/10 05:28:02;;;;;;;4.43;2.22;;;20.20;72.50;;;;;;5054096;28;20101;-75
2023/07/10 05:30:29;;;;;;;7.32;2.95;;;20.30;72.70;;;;;;5037521;28;20048;-75
2023/07/10 05:32:54;;;;;;;7.18;2.15;;;20.30;73.00;;;;;;5053131;28;20538;-75
2023/07/10 05:35:20;;;;;;;5.47;2.00;;;20.30;73.20;;;;;;5053486;28;20127;-75
2023/07/10 05:37:47;;;;;;;5.65;2.22;;;20.40;73.30;;;;;;5053846;28;20033;-75
2023/07/10 05:40:13;;;;;;;5.05;2.15;;;20.40;73.30;;;;;;5037310;28;20040;-69
2023/07/10 05:42:39;;;;;;;5.10;2.58;;;20.40;73.60;;;;;;5053934;28;20040;-69
2023/07/10 05:45:05;;;;;;;5.28;2.25;;;20.50;74.00;;;;;;5053901;28;20040;-69
2023/07/10 05:47:32;;;;;;;5.32;2.30;;;20.60;74.20;;;;;;5054446;28;20036;-69
2023/07/10 05:49:58;;;;;;;5.65;2.38;;;20.70;74.00;;;;;;5054283;28;20044;-69
2023/07/10 05:52:23;;;;;;;4.90;2.45;;;20.90;74.20;;;;;;5053880;28;20380;-69
2023/07/10 05:54:49;;;;;;;5.60;2.15;;;21.10;74.10;;;;;;5037206;28;20036;-69
2023/07/10 05:57:15;;;;;;;7.28;2.45;;;21.30;73.40;;;;;;5053763;28;20040;-69
2023/07/10 05:59:41;;;;;;;6.43;2.75;;;21.60;72.70;;;;;;5053880;28;20036;-69
2023/07/10 06:02:11;;;;;;;6.63;2.22;;;21.90;71.70;;;;;;5052241;28;20075;-70
2023/07/10 06:04:37;;;;;;;7.20;2.55;;;22.10;70.50;;;;;;5053276;28;20487;-69
2023/07/10 06:07:03;;;;;;;5.18;2.10;;;22.40;70.00;;;;;;5053455;28;20556;-69
2023/07/10 06:09:29;;;;;;;5.85;2.15;;;22.60;68.80;;;;;;5054040;28;20394;-69
2023/07/10 06:11:54;;;;;;;7.65;2.67;;;22.80;67.40;;;;;;5054128;28;20036;-75
2023/07/10 06:14:20;;;;;;;7.22;2.25;;;23.00;66.60;;;;;;5054936;28;20080;-75
2023/07/10 06:16:46;;;;;;;8.55;2.35;;;23.10;66.40;;;;;;5054124;28;20436;-75
2023/07/10 06:19:11;;;;;;;5.68;1.92;;;23.40;65.80;;;;;;5054011;28;20047;-75
2023/07/10 06:21:37;;;;;;;7.25;2.05;;;23.70;65.10;;;;;;5053087;28;20106;-70
2023/07/10 06:24:03;;;;;;;4.95;1.73;;;24.10;63.60;;;;;;5038052;28;20043;-75
2023/07/10 06:26:29;;;;;;;6.22;1.92;;;24.40;61.90;;;;;;5075454;28;20380;-75
2023/07/10 06:28:55;;;;;;;6.30;2.45;;;24.70;60.50;;;;;;5058201;28;20044;-75
2023/07/10 06:31:21;;;;;;;3.90;1.58;;;25.00;59.70;;;;;;5057630;28;20098;-75
2023/07/10 06:33:47;;;;;;;5.78;1.95;;;25.30;58.90;;;;;;5024338;28;20040;-75
2023/07/10 06:36:12;;;;;;;6.43;1.80;;;25.50;58.10;;;;;;5040708;28;20045;-75
2023/07/10 06:38:38;;;;;;;3.55;1.27;;;25.80;56.90;;;;;;5057566;28;20036;-73
2023/07/10 06:41:07;;;;;;;5.40;1.50;;;26.00;56.60;;;;;;5057473;28;20033;-74
2023/07/10 06:43:34;;;;;;;5.40;1.90;;;26.20;56.50;;;;;;5057243;28;20480;-74
2023/07/10 06:46:00;;;;;;;7.65;1.65;;;26.40;55.70;;;;;;5057390;28;20142;-74
2023/07/10 06:48:25;;;;;;;5.45;1.63;;;26.60;55.10;;;;;;5057586;28;20131;-74
2023/07/10 06:50:53;;;;;;;3.85;1.40;;;26.70;54.50;;;;;;5057011;28;20423;-75
2023/07/10 06:53:19;;;;;;;4.88;1.88;;;26.90;54.20;;;;;;5057318;28;20049;-74
2023/07/10 06:55:45;;;;;;;4.53;1.88;;;27.00;54.10;;;;;;5056973;28;20115;-74
2023/07/10 06:58:13;;;;;;;5.57;1.90;;;27.20;53.50;;;;;;5057130;28;20128;-75
2023/07/10 07:00:39;;;;;;;5.10;1.85;;;27.40;53.00;;;;;;5040320;28;20037;-69
2023/07/10 07:03:07;;;;;;;4.25;1.67;;;27.50;52.40;;;;;;5040492;28;20029;-69
2023/07/10 07:05:33;;;;;;;4.40;1.60;;;27.70;52.60;;;;;;5056171;28;20052;-68
2023/07/10 07:07:58;;;;;;;6.82;1.65;;;27.90;51.80;;;;;;5056861;28;20063;-68
2023/07/10 07:10:24;;;;;;;7.03;1.95;;;28.00;51.50;;;;;;5056837;28;20040;-68
2023/07/10 07:12:50;;;;;;;7.60;2.15;;;28.20;51.20;;;;;;5040244;28;20054;-69
2023/07/10 07:15:17;;;;;;;4.90;2.05;;;28.30;50.30;;;;;;5039376;28;20050;-69
2023/07/10 07:17:43;;;;;;;6.07;2.15;;;28.40;49.60;;;;;;5039891;28;20075;-69
2023/07/10 07:20:09;;;;;;;6.80;2.00;;;28.50;49.40;;;;;;5056834;28;20059;-69
2023/07/10 07:22:35;;;;;;;5.35;1.70;;;28.60;49.20;;;;;;5054193;28;20415;-69
2023/07/10 07:25:01;;;;;;;5.40;1.60;;;28.70;48.80;;;;;;5056156;28;20036;-70
2023/07/10 07:27:31;;;;;;;6.45;2.30;;;28.80;48.70;;;;;;5056917;28;20450;-70
2023/07/10 07:29:57;;;;;;;6.32;1.75;;;28.90;48.40;;;;;;5053081;28;20636;-70
2023/07/10 07:32:23;;;;;;;5.13;1.77;;;28.90;48.20;;;;;;5056121;28;20052;-70
2023/07/10 07:34:48;;;;;;;7.82;1.98;;;28.90;48.10;;;;;;5030427;28;20036;-70
2023/07/10 07:37:14;;;;;;;4.93;1.83;;;29.00;48.20;;;;;;5035966;28;20468;-70
2023/07/10 07:39:40;;;;;;;8.60;2.42;;;29.10;48.30;;;;;;5035829;28;20040;-70
2023/07/10 07:42:06;;;;;;;6.53;2.15;;;29.10;47.80;;;;;;5056091;28;20067;-70
2023/07/10 07:44:32;;;;;;;5.97;2.17;;;29.20;47.10;;;;;;5055362;28;20044;-70
2023/07/10 07:46:58;;;;;;;5.47;1.92;;;29.20;46.40;;;;;;5038819;28;20175;-74
2023/07/10 07:49:24;;;;;;;6.10;1.70;;;29.10;46.10;;;;;;5055421;28;20504;-72
2023/07/10 07:51:51;;;;;;;6.47;2.00;;;29.10;46.70;;;;;;5039043;28;20098;-70
2023/07/10 07:54:18;;;;;;;8.30;1.77;;;29.10;47.30;;;;;;5055155;28;20405;-69
2023/07/10 07:56:43;;;;;;;5.82;1.58;;;29.10;47.20;;;;;;5055503;28;20492;-70
2023/07/10 07:59:09;;;;;;;8.32;2.33;;;29.10;47.00;;;;;;5054703;28;20036;-69
2023/07/10 08:01:35;;;;;;;6.65;1.63;;;29.10;47.00;;;;;;5038573;28;20063;-69
2023/07/10 08:04:01;;;;;;;7.60;2.55;;;29.10;46.90;;;;;;5038534;28;20037;-69
2023/07/10 08:06:29;;;;;;;7.47;2.30;;;29.10;46.60;;;;;;5054158;28;20407;-70
2023/07/10 08:08:55;;;;;;;6.50;2.22;;;29.10;46.70;;;;;;5054917;28;20036;-70
2023/07/10 08:11:21;;;;;;;6.35;2.00;;;29.10;47.20;;;;;;5054933;28;20054;-69
2023/07/10 08:13:48;;;;;;;6.10;2.38;;;29.10;46.80;;;;;;5054250;28;20103;-70
2023/07/10 08:16:13;;;;;;;7.18;2.00;;;29.10;46.80;;;;;;5053845;28;20044;-70
2023/07/10 08:18:40;;;;;;;6.55;1.70;;;29.10;46.20;;;;;;5037574;28;20549;-70
2023/07/10 08:21:10;;;;;;;7.63;2.53;;;29.10;45.60;;;;;;5037448;28;20064;-69
2023/07/10 08:23:36;;;;;;;6.70;2.38;;;29.10;46.10;;;;;;5054924;28;20040;-69
2023/07/10 08:26:03;;;;;;;5.93;2.22;;;29.00;46.60;;;;;;5038021;28;20137;-69
2023/07/10 08:28:29;;;;;;;7.60;2.30;;;29.10;46.50;;;;;;5055088;28;20392;-70
2023/07/10 08:30:54;;;;;;;5.53;2.33;;;29.10;46.50;;;;;;5054380;28;20043;-70
2023/07/10 08:33:20;;;;;;;6.18;1.92;;;29.10;46.50;;;;;;5054795;28;20043;-70
2023/07/10 08:35:57;;;;;;;7.32;2.20;;;29.00;46.10;;;;;;5038208;28;20472;-70
2023/07/10 08:38:22;;;;;;;6.55;2.33;;;29.00;46.00;;;;;;5037659;28;20044;-70
2023/07/10 08:40:52;;;;;;;6.18;1.70;;;28.90;46.20;;;;;;5054851;28;20051;-70
2023/07/10 08:43:32;;;;;;;7.57;1.90;;;28.80;46.30;;;;;;5054957;28;20106;-70
2023/07/10 08:46:12;;;;;;;8.52;2.28;;;28.80;46.60;;;;;;5054766;28;20040;-70
2023/07/10 08:48:46;;;;;;;7.45;2.63;;;28.80;46.80;;;;;;5053699;28;20080;-70
2023/07/10 08:51:17;;;;;;;7.82;3.00;;;28.70;47.40;;;;;;5072200;28;20089;-70
2023/07/10 08:53:48;;;;;;;6.43;2.55;;;28.60;47.30;;;;;;5054552;28;20125;-70
2023/07/10 08:56:30;;;;;;;7.97;2.88;;;28.60;47.50;;;;;;5053946;28;20219;-70
2023/07/10 08:59:07;;;;;;;8.60;2.15;;;28.70;47.00;;;;;;5054385;28;20115;-70
2023/07/10 09:01:41;;;;;;;7.60;2.20;;;28.70;47.10;;;;;;5053701;28;20121;-70
2023/07/10 09:04:14;;;;;;;8.50;2.63;;;28.80;47.30;;;;;;5053962;28;20039;-70
2023/07/10 09:06:56;;;;;;;6.97;2.17;;;28.80;47.40;;;;;;5054358;28;20073;-70
2023/07/10 09:09:37;;;;;;;6.03;2.15;;;28.80;47.70;;;;;;5053828;28;20158;-70
2023/07/10 09:12:10;;;;;;;7.53;2.42;;;28.80;47.80;;;;;;5054323;28;20135;-69
2023/07/10 09:14:41;;;;;;;7.75;2.30;;;28.80;47.70;;;;;;5053388;28;20044;-70
2023/07/10 09:17:19;;;;;;;10.57;2.63;;;28.80;47.00;;;;;;5051348;28;20075;-70
2023/07/10 09:19:51;;;;;;;7.63;2.33;;;28.80;46.60;;;;;;5052580;28;20037;-70
2023/07/10 09:22:17;;;;;;;7.37;2.13;;;28.70;46.40;;;;;;5053660;28;20044;-71
2023/07/10 09:24:43;;;;;;;7.95;2.75;;;28.60;46.60;;;;;;5033787;28;20547;-70
2023/07/10 09:27:13;;;;;;;10.50;2.60;;;28.60;46.30;;;;;;5019654;28;20086;-70
2023/07/10 09:29:40;;;;;;;8.52;2.95;;;28.60;47.50;;;;;;5052462;28;20050;-70
2023/07/10 09:32:14;;;;;;;7.15;2.33;;;28.60;47.90;;;;;;5051740;28;20044;-70
2023/07/10 09:34:58;;;;;;;8.02;2.63;;;28.60;47.70;;;;;;5042222;28;20124;-70
2023/07/10 09:37:32;;;;;;;7.40;2.55;;;28.70;48.00;;;;;;5042175;28;20051;-69
2023/07/10 09:40:18;;;;;;;8.05;2.17;;;28.70;48.00;;;;;;5029699;28;20111;-71
2023/07/10 09:42:44;;;;;;;10.63;2.78;;;28.80;48.20;;;;;;5053543;28;20060;-70
2023/07/10 09:45:14;;;;;;;7.50;3.17;;;28.80;47.60;;;;;;5050725;28;20121;-70
2023/07/10 09:47:44;;;;;;;6.90;2.20;;;28.80;47.10;;;;;;5053161;28;20040;-70
2023/07/10 09:50:17;;;;;;;8.93;2.45;;;28.80;47.50;;;;;;5071717;28;20040;-71
2023/07/10 09:52:52;;;;;;;7.83;2.00;;;28.80;47.10;;;;;;5054075;28;20044;-71
2023/07/10 09:55:18;;;;;;;9.43;2.42;;;28.70;46.60;;;;;;5050687;28;20049;-71
2023/07/10 09:58:00;;;;;;;12.80;2.53;;;28.60;46.60;;;;;;5051415;28;20063;-71
2023/07/10 10:00:27;;;;;;;8.20;2.35;;;28.60;46.20;;;;;;5052076;28;20037;-71
2023/07/10 10:03:09;;;;;;;7.65;2.08;;;28.50;46.70;;;;;;5050009;28;20498;-71
2023/07/10 10:05:40;;;;;;;8.02;2.50;;;28.50;46.70;;;;;;5048917;28;20067;-71
2023/07/10 10:08:27;;;;;;;10.27;2.45;;;28.50;46.40;;;;;;5051795;28;20150;-73
2023/07/10 10:11:09;;;;;;;8.45;2.00;;;28.50;46.10;;;;;;5043452;28;20102;-71
2023/07/10 10:13:40;;;;;;;8.07;2.47;;;28.50;46.70;;;;;;5036391;28;20032;-73
2023/07/10 10:16:26;;;;;;;9.93;2.15;;;28.50;46.20;;;;;;5045688;28;20041;-74
2023/07/10 10:18:57;;;;;;;6.88;2.00;;;28.50;46.00;;;;;;5057541;28;20530;-73
2023/07/10 10:21:24;;;;;;;7.15;2.00;;;28.30;46.30;;;;;;5040924;28;20057;-73
2023/07/10 10:23:54;;;;;;;6.53;2.40;;;28.30;46.80;;;;;;5055013;28;20040;-73
2023/07/10 10:26:23;;;;;;;8.10;2.30;;;28.40;46.80;;;;;;5054477;28;20049;-73
2023/07/10 10:28:55;;;;;;;9.40;2.33;;;28.40;46.20;;;;;;5054396;28;20095;-73
2023/07/10 10:31:26;;;;;;;11.23;2.88;;;28.40;46.10;;;;;;5050853;28;20040;-72
2023/07/10 10:33:55;;;;;;;8.27;2.22;;;28.50;46.30;;;;;;5059966;28;20048;-73
2023/07/10 10:36:46;;;;;;;5.43;1.90;;;28.50;46.60;;;;;;5059443;28;20040;-72
2023/07/10 10:39:42;;;;;;;7.97;2.05;;;28.60;46.60;;;;;;5057208;28;20072;-74
2023/07/10 10:42:46;;;;;;;7.25;1.95;;;28.70;46.10;;;;;;5057762;28;20042;-73
2023/07/10 10:45:32;;;;;;;7.80;2.30;;;28.80;45.10;;;;;;5041520;28;20040;-73
2023/07/10 10:48:10;;;;;;;7.95;2.65;;;28.80;44.30;;;;;;5056215;28;20119;-71
2023/07/10 10:50:41;;;;;;;7.20;2.42;;;28.80;44.70;;;;;;5053129;28;20123;-72
2023/07/10 10:53:32;;;;;;;8.35;2.28;;;28.80;45.60;;;;;;5051498;28;20395;-72
2023/07/10 10:56:20;;;;;;;5.82;2.33;;;28.80;44.40;;;;;;5050410;28;20043;-72
2023/07/10 10:58:51;;;;;;;6.32;1.88;;;28.80;45.10;;;;;;5047721;28;20549;-72
2023/07/10 11:01:49;;;;;;;7.95;2.10;;;28.90;45.60;;;;;;5035298;28;20040;-72
2023/07/10 11:04:19;;;;;;;6.97;1.95;;;28.90;45.90;;;;;;5048276;28;20488;-73
2023/07/10 11:07:08;;;;;;;6.72;2.35;;;29.00;44.60;;;;;;5052792;28;20074;-73
2023/07/10 11:09:56;;;;;;;6.57;1.92;;;29.20;43.30;;;;;;5044436;28;20048;-72
2023/07/10 11:12:27;;;;;;;9.93;2.10;;;29.20;43.70;;;;;;5054672;28;20087;-73
2023/07/10 11:14:56;;;;;;;8.70;2.17;;;29.30;43.60;;;;;;5055894;28;20044;-72
2023/07/10 11:17:23;;;;;;;5.43;1.80;;;29.30;43.10;;;;;;5055543;28;20036;-72
2023/07/10 11:19:50;;;;;;;6.25;1.95;;;29.40;42.60;;;;;;5055180;28;20036;-70
2023/07/10 11:22:26;;;;;;;5.90;2.00;;;29.40;42.90;;;;;;5011654;28;20060;-73
2023/07/10 11:24:53;;;;;;;8.25;1.98;;;29.50;43.10;;;;;;5037574;28;20123;-75
2023/07/10 11:27:27;;;;;;;7.80;1.80;;;29.50;43.40;;;;;;5035664;28;20045;-73
2023/07/10 11:30:12;;;;;;;7.13;2.10;;;29.60;44.10;;;;;;5032351;28;20177;-73
2023/07/10 11:33:20;;;;;;;9.63;2.55;;;29.70;43.60;;;;;;5033675;28;20121;-73
2023/07/10 11:36:12;;;;;;;5.38;1.48;;;29.70;43.20;;;;;;4953547;28;20034;-73
2023/07/10 11:39:16;;;;;;;7.38;2.10;;;29.70;42.60;;;;;;5018826;28;20033;-73
2023/07/10 11:41:42;;;;;;;5.47;1.77;;;29.60;42.70;;;;;;4972777;28;20414;-75
2023/07/10 11:44:14;;;;;;;6.50;1.73;;;29.50;42.30;;;;;;5040368;28;20120;-76
2023/07/10 11:47:01;;;;;;;5.53;1.92;;;29.30;41.50;;;;;;5035932;28;20045;-73
2023/07/10 11:49:51;;;;;;;5.80;1.63;;;29.00;41.20;;;;;;5052066;28;20049;-73
2023/07/10 11:52:16;;;;;;;5.65;1.92;;;28.80;41.20;;;;;;5036231;28;20040;-75
2023/07/10 11:54:48;;;;;;;7.93;2.00;;;28.50;42.20;;;;;;5052480;28;20064;-74
2023/07/10 11:57:32;;;;;;;6.97;2.20;;;28.30;42.20;;;;;;5051573;28;20154;-72
2023/07/10 12:00:04;;;;;;;10.07;2.30;;;28.00;42.50;;;;;;5041433;28;20870;-72
2023/07/10 12:02:43;;;;;;;6.13;1.45;;;27.80;42.90;;;;;;5036853;28;20045;-72
2023/07/10 12:05:31;;;;;;;5.20;1.83;;;27.70;43.70;;;;;;5023458;28;20068;-72
2023/07/10 12:08:14;;;;;;;7.00;2.40;;;27.60;44.20;;;;;;5036901;28;20033;-72
2023/07/10 12:10:48;;;;;;;8.88;2.78;;;27.50;45.30;;;;;;5037457;28;20038;-71
2023/07/10 12:13:27;;;;;;;7.10;2.10;;;27.50;45.90;;;;;;5041456;28;20041;-71
2023/07/10 12:15:56;;;;;;;8.10;2.28;;;27.50;45.90;;;;;;5040690;28;20041;-71
2023/07/10 12:18:38;;;;;;;8.23;2.20;;;27.50;46.50;;;;;;5039177;28;20077;-71
2023/07/10 12:21:14;;;;;;;7.80;2.03;;;27.60;46.10;;;;;;5038732;28;20409;-71
2023/07/10 12:23:52;;;;;;;7.80;1.70;;;27.60;45.30;;;;;;5036329;28;20724;-72
2023/07/10 12:26:17;;;;;;;6.70;2.50;;;27.60;45.30;;;;;;5020248;28;20103;-72
2023/07/10 12:28:43;;;;;;;7.88;2.25;;;27.60;45.70;;;;;;5040843;28;20049;-72
2023/07/10 12:31:13;;;;;;;5.22;1.95;;;27.60;46.20;;;;;;5036129;28;20049;-71
2023/07/10 12:33:47;;;;;;;6.22;1.58;;;27.70;46.60;;;;;;5022386;28;20115;-71
2023/07/10 12:36:18;;;;;;;5.70;1.88;;;27.70;46.10;;;;;;5021383;28;20063;-71
2023/07/10 12:38:44;;;;;;;5.18;1.88;;;27.80;45.00;;;;;;5041526;28;20477;-70
2023/07/10 12:41:10;;;;;;;8.52;1.58;;;27.80;44.20;;;;;;5059696;28;20041;-71
2023/07/10 12:43:36;;;;;;;6.93;1.60;;;27.80;44.00;;;;;;5036518;28;20539;-70
2023/07/10 12:46:17;;;;;;;3.95;1.30;;;27.90;43.40;;;;;;5037783;28;20053;-70
2023/07/10 12:48:45;;;;;;;5.57;1.27;;;27.90;43.40;;;;;;5024400;28;20041;-71
2023/07/10 12:51:20;;;;;;;4.88;1.40;;;28.00;43.30;;;;;;5022830;28;20383;-71
2023/07/10 12:53:46;;;;;;;5.30;1.67;;;28.00;43.10;;;;;;5037018;28;20641;-71
2023/07/10 12:56:32;;;;;;;5.65;1.77;;;28.00;42.40;;;;;;5034567;28;20045;-71
2023/07/10 12:59:26;;;;;;;6.60;1.83;;;27.90;41.90;;;;;;5036274;28;20045;-71